createdAt,value
2022-12-29T00:01:30.305Z,99981.94
2022-12-29T00:06:34.080Z,99968.72
2022-12-29T00:11:37.035Z,99963.56
2022-12-29T00:16:43.934Z,99957.41
2022-12-29T00:22:04.599Z,99959.03
2022-12-29T00:27:31.651Z,99936.22
2022-12-29T00:32:53.638Z,99939.75
2022-12-29T00:38:18.902Z,99927.53
2022-12-29T00:43:39.386Z,99923.16
2022-12-29T00:49:01.361Z,99909.97
2022-12-29T00:54:04.595Z,99908.94
2022-12-29T00:59:09.080Z,99912.34
2022-12-29T01:04:14.020Z,99903.44
2022-12-29T01:09:35.272Z,99894.78
2022-12-29T01:14:38.845Z,99891.31
2022-12-29T01:19:43.233Z,99888.75
2022-12-29T01:24:46.314Z,99892.88
2022-12-29T01:29:49.653Z,99903.09
2022-12-29T01:34:54.022Z,99904.00
2022-12-29T01:39:57.065Z,99896.91
2022-12-29T01:45:04.963Z,99897.59
2022-12-29T01:50:14.604Z,99895.72
2022-12-29T01:55:18.127Z,99898.34
2022-12-29T02:00:22.883Z,99900.09
2022-12-29T02:05:35.631Z,99901.06
2022-12-29T02:10:38.996Z,99910.78
2022-12-29T02:15:54.661Z,99911.69
2022-12-29T02:21:36.023Z,99920.31
2022-12-29T02:27:07.307Z,99905.47
2022-12-29T02:32:16.280Z,99912.53
2022-12-29T02:37:27.636Z,99916.97
2022-12-29T02:42:38.067Z,99909.06
2022-12-29T02:47:50.780Z,99911.56
2022-12-29T02:52:59.645Z,99897.47
2022-12-29T02:58:18.292Z,99887.41
2022-12-29T03:03:37.527Z,99909.09
2022-12-29T03:08:50.750Z,99898.53
2022-12-29T03:14:16.266Z,99898.44
2022-12-29T03:19:26.875Z,99890.16
2022-12-29T03:24:32.289Z,99891.56
2022-12-29T03:29:41.859Z,99887.84
2022-12-29T03:34:47.294Z,99889.38
2022-12-29T03:39:51.887Z,99883.19
2022-12-29T03:44:58.109Z,99891.31
2022-12-29T03:50:02.631Z,99898.13
2022-12-29T03:55:09.665Z,99893.06
2022-12-29T04:00:15.200Z,99890.50
2022-12-29T04:05:19.637Z,99902.00
2022-12-29T04:10:23.932Z,99902.78
2022-12-29T04:15:30.651Z,99928.00
2022-12-29T04:20:52.848Z,99906.81
2022-12-29T04:25:56.159Z,99914.47
2022-12-29T04:30:59.234Z,99924.09
2022-12-29T04:36:08.769Z,99911.91
2022-12-29T04:41:14.055Z,99923.00
2022-12-29T04:46:17.695Z,99915.69
2022-12-29T04:51:45.240Z,99924.06
2022-12-29T04:56:49.951Z,99926.53
2022-12-29T05:01:54.229Z,99924.56
2022-12-29T05:06:58.669Z,99956.06
2022-12-29T05:12:01.919Z,99943.66
2022-12-29T05:17:06.384Z,99942.00
2022-12-29T05:22:10.772Z,99971.94
2022-12-29T05:27:15.234Z,99955.56
2022-12-29T05:32:46.547Z,99962.84
2022-12-29T05:37:50.955Z,99966.44
2022-12-29T05:42:54.048Z,99963.84
2022-12-29T05:48:18.524Z,99993.66
2022-12-29T05:53:46.234Z,99953.50
2022-12-29T05:58:49.382Z,99984.06
2022-12-29T06:03:52.541Z,99965.13
2022-12-29T06:08:58.506Z,99966.03
2022-12-29T06:14:01.889Z,99962.53
2022-12-29T06:19:04.979Z,99982.66
2022-12-29T06:24:12.150Z,100004.34
2022-12-29T06:29:17.862Z,100007.31
2022-12-29T06:34:20.918Z,100002.56
2022-12-29T06:39:25.658Z,100008.66
2022-12-29T06:44:43.925Z,100001.06
2022-12-29T06:49:47.662Z,99999.63
2022-12-29T06:54:52.123Z,99984.00
2022-12-29T06:59:56.629Z,99991.69
2022-12-29T07:04:59.642Z,100058.63
2022-12-29T07:10:04.708Z,100055.69
2022-12-29T07:15:09.009Z,100039.28
2022-12-29T07:20:12.533Z,100037.13
2022-12-29T07:25:17.023Z,100041.84
2022-12-29T07:30:20.762Z,100025.63
2022-12-29T07:35:23.702Z,100024.59
2022-12-29T07:40:30.658Z,100031.97
2022-12-29T07:45:33.693Z,100037.53
2022-12-29T07:50:44.748Z,100042.84
2022-12-29T07:55:49.093Z,100042.06
2022-12-29T08:00:55.753Z,100039.63
2022-12-29T08:05:59.197Z,100039.63
2022-12-29T08:11:03.757Z,100027.88
2022-12-29T08:16:07.657Z,100044.94
2022-12-29T08:21:10.702Z,100042.09
2022-12-29T08:26:15.124Z,100032.50
2022-12-29T08:31:18.176Z,100034.44
2022-12-29T08:36:21.333Z,100034.44
2022-12-29T08:41:26.088Z,100032.69
2022-12-29T08:46:29.334Z,100051.03
2022-12-29T08:51:32.327Z,100034.41
2022-12-29T08:56:36.762Z,100059.94
2022-12-29T09:01:41.630Z,100082.78
2022-12-29T09:06:45.584Z,100084.44
2022-12-29T09:11:50.105Z,100088.16
2022-12-29T09:17:11.143Z,100102.97
2022-12-29T09:22:14.245Z,100105.41
2022-12-29T09:27:18.560Z,100136.47
2022-12-29T09:32:23.526Z,100124.94
2022-12-29T09:37:27.881Z,100156.22
2022-12-29T09:42:40.313Z,100163.16
2022-12-29T09:47:44.903Z,100165.06
2022-12-29T09:52:53.093Z,100215.13
2022-12-29T09:58:01.914Z,100182.97
2022-12-29T10:03:14.000Z,100197.44
2022-12-29T10:08:29.371Z,100213.94
2022-12-29T10:13:45.466Z,100212.00
2022-12-29T10:19:33.440Z,100225.94
2022-12-29T10:24:40.683Z,100241.31
2022-12-29T10:29:50.295Z,100247.16
2022-12-29T10:34:59.372Z,100247.47
2022-12-29T10:40:14.563Z,100274.06
2022-12-29T10:45:21.031Z,100284.75
2022-12-29T10:50:27.105Z,100272.78
2022-12-29T10:55:34.405Z,100278.50
2022-12-29T11:00:38.844Z,100280.47
2022-12-29T11:05:48.275Z,100295.34
2022-12-29T11:11:01.611Z,100291.00
2022-12-29T11:16:06.651Z,100292.66
2022-12-29T11:21:28.220Z,100322.81
2022-12-29T11:26:34.640Z,100322.03
2022-12-29T11:31:44.540Z,100319.91
2022-12-29T11:36:48.182Z,100324.16
2022-12-29T11:41:54.724Z,100323.44
2022-12-29T11:46:59.142Z,100331.63
2022-12-29T11:52:02.734Z,100348.09
2022-12-29T11:57:13.907Z,100356.00
2022-12-29T12:02:43.083Z,100361.97
2022-12-29T12:07:49.138Z,100351.69
2022-12-29T12:12:59.213Z,100363.97
2022-12-29T12:18:07.863Z,100365.34
2022-12-29T12:23:21.874Z,100362.25
2022-12-29T12:28:36.957Z,100348.13
2022-12-29T12:33:46.935Z,100362.09
2022-12-29T12:38:57.498Z,100362.00
2022-12-29T12:44:07.759Z,100379.06
2022-12-29T12:49:39.711Z,100396.53
2022-12-29T12:55:05.476Z,100398.94
2022-12-29T13:00:13.196Z,100400.56
2022-12-29T13:05:33.497Z,100397.22
2022-12-29T13:10:49.829Z,100406.84
2022-12-29T13:16:00.241Z,100410.34
2022-12-29T13:21:11.027Z,100405.81
2022-12-29T13:26:21.535Z,100414.28
2022-12-29T13:31:35.833Z,100421.88
2022-12-29T13:36:45.313Z,100420.50
2022-12-29T13:41:52.499Z,100424.72
2022-12-29T13:46:59.005Z,100441.78
2022-12-29T13:52:14.164Z,100438.25
2022-12-29T13:57:28.268Z,100437.44
2022-12-29T14:02:45.020Z,100423.25
2022-12-29T14:07:51.298Z,100419.00
2022-12-29T14:13:04.352Z,100430.97
2022-12-29T14:18:15.822Z,100427.66
2022-12-29T14:23:31.325Z,100442.47
2022-12-29T14:28:35.955Z,100438.16
2022-12-29T14:33:39.073Z,100438.84
2022-12-29T14:38:48.518Z,100449.38
2022-12-29T14:43:59.207Z,100448.31
2022-12-29T14:49:02.443Z,100450.91
2022-12-29T14:54:38.788Z,100463.00
2022-12-29T14:59:44.593Z,100452.31
2022-12-29T15:04:48.878Z,100435.97
2022-12-29T15:09:59.303Z,100444.28
2022-12-29T15:15:04.162Z,100448.47
2022-12-29T15:20:23.121Z,100466.72
2022-12-29T15:25:29.397Z,100461.25
2022-12-29T15:30:34.054Z,100467.22
2022-12-29T15:35:38.623Z,100482.66
2022-12-29T15:40:41.921Z,100465.91
2022-12-29T15:45:46.535Z,100481.50
2022-12-29T15:50:49.792Z,100484.72
2022-12-29T15:55:55.886Z,100505.28
2022-12-29T16:01:03.845Z,100512.59
2022-12-29T16:06:12.074Z,100526.22
2022-12-29T16:11:24.168Z,100537.16
2022-12-29T16:16:32.344Z,100545.81
2022-12-29T16:21:37.805Z,100541.09
2022-12-29T16:26:40.806Z,100540.91
2022-12-29T16:32:01.149Z,100545.81
2022-12-29T16:37:25.536Z,100554.38
2022-12-29T16:42:51.256Z,100558.84
2022-12-29T16:48:19.123Z,100570.56
2022-12-29T16:53:28.212Z,100564.94
2022-12-29T16:58:32.976Z,100558.66
2022-12-29T17:03:42.027Z,100564.66
2022-12-29T17:08:46.741Z,100566.31
2022-12-29T17:13:50.091Z,100562.66
2022-12-29T17:18:54.737Z,100584.22
2022-12-29T17:24:02.158Z,100593.66
2022-12-29T17:29:05.491Z,100612.50
2022-12-29T17:34:14.062Z,100626.88
2022-12-29T17:39:17.055Z,100636.03
2022-12-29T17:44:21.727Z,100632.94
2022-12-29T17:49:27.291Z,100637.06
2022-12-29T17:54:30.683Z,100628.47
2022-12-29T17:59:33.923Z,100649.16
2022-12-29T18:04:38.330Z,100654.16
2022-12-29T18:09:41.294Z,100653.13
2022-12-29T18:14:44.184Z,100659.09
2022-12-29T18:19:50.856Z,100655.34
2022-12-29T18:24:54.040Z,100678.00
2022-12-29T18:29:57.169Z,100665.53
2022-12-29T18:35:01.549Z,100668.16
2022-12-29T18:40:04.875Z,100676.72
2022-12-29T18:45:17.021Z,100680.19
2022-12-29T18:50:21.604Z,100677.59
2022-12-29T18:55:26.785Z,100683.72
2022-12-29T19:00:29.988Z,100709.22
2022-12-29T19:05:39.115Z,100710.19
2022-12-29T19:10:44.858Z,100712.97
2022-12-29T19:15:48.347Z,100715.56
2022-12-29T19:20:54.206Z,100727.66
2022-12-29T19:25:57.234Z,100724.84
2022-12-29T19:31:01.772Z,100729.22
2022-12-29T19:36:06.703Z,100729.16
2022-12-29T19:41:09.713Z,100738.81
2022-12-29T19:46:17.931Z,100738.66
2022-12-29T19:51:22.411Z,100737.44
2022-12-29T19:56:25.488Z,100737.13
2022-12-29T20:01:31.349Z,100746.97
2022-12-29T20:06:36.202Z,100746.00
2022-12-29T20:11:39.226Z,100751.88
2022-12-29T20:17:09.048Z,100755.00
2022-12-29T20:22:08.648Z,100755.75
2022-12-29T20:27:14.122Z,100760.13
2022-12-29T20:32:20.654Z,100767.75
2022-12-29T20:37:25.152Z,100761.56
2022-12-29T20:42:28.107Z,100770.03
2022-12-29T20:47:31.166Z,100770.78
2022-12-29T20:52:35.510Z,100770.56
2022-12-29T20:58:21.578Z,100769.59
2022-12-29T21:03:02.242Z,100780.84
2022-12-29T21:08:07.389Z,100784.97
2022-12-29T21:13:10.310Z,100784.00
2022-12-29T21:18:14.320Z,100799.50
2022-12-29T21:23:18.737Z,100802.06
2022-12-29T21:28:23.096Z,100826.16
2022-12-29T21:33:27.335Z,100829.75
2022-12-29T21:38:31.908Z,100824.94
2022-12-29T21:43:35.270Z,100850.84
2022-12-29T21:48:38.242Z,100855.19
2022-12-29T21:53:44.722Z,100858.66
2022-12-29T21:59:07.531Z,100872.91
2022-12-29T22:04:30.288Z,100868.50
2022-12-29T22:09:52.949Z,100863.78
2022-12-29T22:14:55.888Z,100896.69
2022-12-29T22:19:58.972Z,100902.97
2022-12-29T22:25:03.807Z,100912.25
2022-12-29T22:30:08.340Z,100913.34
2022-12-29T22:35:12.937Z,100919.06
2022-12-29T22:40:17.402Z,100918.72
2022-12-29T22:45:20.431Z,100920.00
2022-12-29T22:50:23.420Z,100925.81
2022-12-29T22:55:30.280Z,100929.88
2022-12-29T23:00:33.278Z,100939.16
2022-12-29T23:05:36.508Z,100947.59
2022-12-29T23:10:40.944Z,100951.91
2022-12-29T23:15:43.993Z,100956.06
2022-12-29T23:20:49.318Z,100959.28
2022-12-29T23:25:53.589Z,100953.84
2022-12-29T23:30:58.011Z,100957.97
2022-12-29T23:36:01.250Z,100969.34
2022-12-29T23:41:06.048Z,100971.59
2022-12-29T23:46:09.943Z,100974.94
2022-12-29T23:51:13.096Z,100985.28
2022-12-29T23:56:19.383Z,100980.97
